Time;durP1;ratioP1;P1;durP2;ratioP2;P2;SDS_P1;SDS_P2;PMS_P1;PMS_P2;Temp;Humidity;BMP_temperature;BMP_pressure;BME280_temperature;BME280_humidity;BME280_pressure;Samples;Min_cycle;Max_cycle;Signal;HPM_P1;HPM_P2
2023/03/14 00:01:53;;;;;;;29.17;4.32;;;9.30;99.90;;;;;;4973303;28;20799;-64
2023/03/14 00:04:19;;;;;;;26.50;4.18;;;9.20;99.90;;;;;;4973475;28;20197;-65
2023/03/14 00:06:46;;;;;;;29.00;4.57;;;9.20;99.90;;;;;;4973988;28;20570;-65
2023/03/14 00:09:13;;;;;;;27.60;4.00;;;9.20;99.90;;;;;;4957337;28;20046;-63
2023/03/14 00:11:39;;;;;;;31.65;3.72;;;9.20;99.90;;;;;;4990139;28;20050;-64
2023/03/14 00:14:05;;;;;;;32.75;4.40;;;9.20;99.90;;;;;;4976278;28;20046;-64
2023/03/14 00:16:30;;;;;;;27.10;4.40;;;9.20;99.90;;;;;;4990005;28;20070;-63
2023/03/14 00:18:59;;;;;;;26.67;4.00;;;9.20;99.90;;;;;;4976890;28;20185;-65
2023/03/14 00:21:25;;;;;;;24.85;3.33;;;9.20;99.90;;;;;;4978568;28;20051;-65
2023/03/14 00:23:51;;;;;;;24.95;4.03;;;9.30;99.90;;;;;;4978910;28;20242;-63
2023/03/14 00:26:19;;;;;;;20.38;3.42;;;9.40;99.90;;;;;;5008707;28;20042;-63
2023/03/14 00:28:47;;;;;;;24.63;3.75;;;9.30;99.90;;;;;;4979045;28;20080;-64
2023/03/14 00:31:15;;;;;;;33.85;4.43;;;9.40;99.90;;;;;;4976782;28;20057;-64
2023/03/14 00:33:44;;;;;;;22.83;3.13;;;9.40;99.90;;;;;;4960909;28;20116;-64
2023/03/14 00:36:15;;;;;;;26.55;4.45;;;9.40;99.90;;;;;;4959845;28;20577;-64
2023/03/14 00:38:42;;;;;;;21.33;3.38;;;9.40;99.90;;;;;;4979649;28;20042;-64
2023/03/14 00:41:10;;;;;;;27.45;3.75;;;9.40;99.90;;;;;;4977839;28;20377;-63
2023/03/14 00:43:37;;;;;;;27.52;3.60;;;9.50;99.90;;;;;;4977411;28;20166;-64
2023/03/14 00:46:03;;;;;;;26.42;3.85;;;9.50;99.90;;;;;;4992280;28;20173;-64
2023/03/14 00:48:29;;;;;;;23.77;3.53;;;9.50;99.90;;;;;;4979201;28;20121;-65
2023/03/14 00:50:54;;;;;;;22.67;3.83;;;9.50;99.90;;;;;;4977894;28;20042;-64
2023/03/14 00:53:20;;;;;;;19.58;3.35;;;9.50;99.90;;;;;;4978327;28;20065;-65
2023/03/14 00:55:46;;;;;;;26.75;3.67;;;9.60;99.90;;;;;;4975746;28;20065;-65
2023/03/14 00:58:14;;;;;;;22.52;3.20;;;9.50;99.90;;;;;;4977492;28;20146;-64
2023/03/14 01:00:40;;;;;;;29.33;4.25;;;9.50;99.90;;;;;;4977537;28;20073;-64
2023/03/14 01:03:06;;;;;;;29.40;3.60;;;9.50;99.90;;;;;;4976702;28;20042;-64
2023/03/14 01:05:32;;;;;;;24.92;3.60;;;9.50;99.90;;;;;;4979456;28;20181;-64
2023/03/14 01:07:58;;;;;;;28.40;3.95;;;9.40;99.90;;;;;;4977815;28;20030;-64
2023/03/14 01:10:24;;;;;;;23.63;4.07;;;9.50;99.90;;;;;;4977545;28;20035;-63
2023/03/14 01:12:50;;;;;;;25.50;3.35;;;9.40;99.90;;;;;;4977504;28;20053;-63
2023/03/14 01:15:16;;;;;;;25.10;3.92;;;9.40;99.90;;;;;;4976201;28;20053;-63
2023/03/14 01:17:42;;;;;;;17.40;3.03;;;9.40;99.90;;;;;;5009004;28;20353;-66
2023/03/14 01:20:10;;;;;;;18.27;3.40;;;9.50;99.90;;;;;;4993400;28;20041;-64
2023/03/14 01:22:39;;;;;;;19.58;2.63;;;9.50;99.90;;;;;;4992453;28;20038;-64
2023/03/14 01:25:06;;;;;;;19.50;2.97;;;9.50;99.90;;;;;;4992551;28;20756;-63
2023/03/14 01:27:32;;;;;;;25.20;3.47;;;9.60;99.90;;;;;;4960690;28;20723;-65
2023/03/14 01:29:58;;;;;;;23.05;3.22;;;9.70;99.90;;;;;;5007685;28;20042;-64
2023/03/14 01:32:25;;;;;;;24.25;3.35;;;9.80;99.90;;;;;;4977847;28;20632;-65
2023/03/14 01:34:51;;;;;;;22.00;3.13;;;9.90;99.90;;;;;;4993261;28;20038;-64
2023/03/14 01:37:17;;;;;;;20.50;2.70;;;10.00;99.90;;;;;;5006915;28;20408;-65
2023/03/14 01:39:42;;;;;;;19.63;3.15;;;10.00;99.90;;;;;;4993404;28;20081;-65
2023/03/14 01:42:08;;;;;;;20.83;3.20;;;10.10;99.90;;;;;;4976375;28;20061;-65
2023/03/14 01:45:26;;;;;;;24.08;3.13;;;10.20;99.90;;;;;;4977493;28;20241;-64
2023/03/14 01:47:52;;;;;;;24.05;3.15;;;10.20;99.90;;;;;;4973653;28;20049;-65
2023/03/14 01:50:18;;;;;;;17.15;2.38;;;10.30;99.90;;;;;;4959401;28;20473;-64
2023/03/14 01:52:47;;;;;;;18.40;2.47;;;10.30;99.90;;;;;;4990544;28;20038;-64
2023/03/14 01:55:17;;;;;;;19.23;2.25;;;10.40;99.90;;;;;;4992243;28;20360;-65
2023/03/14 01:57:47;;;;;;;18.38;2.80;;;10.40;99.90;;;;;;4976981;28;20042;-66
2023/03/14 02:00:18;;;;;;;21.52;2.78;;;10.40;99.90;;;;;;4978938;28;20515;-65
2023/03/14 02:02:50;;;;;;;20.77;2.65;;;10.40;99.90;;;;;;4978381;28;20034;-64
2023/03/14 02:05:20;;;;;;;20.98;2.83;;;10.50;99.90;;;;;;4992819;28;20120;-63
2023/03/14 02:07:55;;;;;;;20.88;2.72;;;10.40;99.90;;;;;;4978232;28;20471;-63
2023/03/14 02:10:24;;;;;;;18.55;2.95;;;10.50;99.90;;;;;;4981002;28;20091;-64
2023/03/14 02:12:53;;;;;;;15.70;2.72;;;10.50;99.90;;;;;;4979739;28;20057;-64
2023/03/14 02:15:19;;;;;;;22.13;3.28;;;10.40;99.90;;;;;;4976966;28;20049;-64
2023/03/14 02:17:45;;;;;;;20.05;2.50;;;10.50;99.90;;;;;;4977237;28;20042;-64
2023/03/14 02:20:11;;;;;;;10.70;1.42;;;10.40;99.90;;;;;;4978570;28;20651;-63
2023/03/14 02:22:40;;;;;;;15.27;1.52;;;10.50;99.90;;;;;;4978701;28;20046;-64
2023/03/14 02:25:30;;;;;;;14.38;1.98;;;10.40;99.90;;;;;;4978585;28;20093;-64
2023/03/14 02:27:56;;;;;;;17.20;2.08;;;10.40;99.90;;;;;;4976135;28;20080;-64
2023/03/14 02:30:26;;;;;;;17.50;2.30;;;10.30;99.90;;;;;;4994884;28;20182;-64
2023/03/14 02:32:56;;;;;;;19.92;3.25;;;10.30;99.90;;;;;;4992860;28;20480;-64
2023/03/14 02:35:26;;;;;;;13.05;1.70;;;10.30;99.90;;;;;;4992336;28;20221;-64
2023/03/14 02:37:57;;;;;;;18.15;2.30;;;10.30;99.90;;;;;;5008335;28;20054;-64
2023/03/14 02:40:23;;;;;;;15.48;2.30;;;10.20;99.90;;;;;;5009506;28;20596;-64
2023/03/14 02:42:49;;;;;;;15.65;2.03;;;10.10;99.90;;;;;;4977544;28;20539;-63
2023/03/14 02:45:15;;;;;;;12.18;1.45;;;10.20;99.90;;;;;;5008314;28;20045;-64
2023/03/14 02:47:49;;;;;;;19.60;2.30;;;10.10;99.90;;;;;;4978539;28;20080;-63
2023/03/14 02:50:20;;;;;;;19.02;2.03;;;10.10;99.90;;;;;;4979689;28;20026;-62
2023/03/14 02:52:46;;;;;;;11.48;1.73;;;10.00;99.90;;;;;;4978313;28;20231;-65
2023/03/14 02:55:11;;;;;;;13.65;1.75;;;10.00;99.90;;;;;;4994226;28;20097;-63
2023/03/14 02:57:37;;;;;;;13.73;1.50;;;9.90;99.90;;;;;;4992893;28;20531;-62
2023/03/14 03:00:04;;;;;;;14.90;1.55;;;9.90;99.90;;;;;;4979786;28;20564;-64
2023/03/14 03:02:31;;;;;;;15.00;2.00;;;10.00;99.90;;;;;;4994068;28;20050;-64
2023/03/14 03:04:57;;;;;;;13.75;1.52;;;9.90;99.90;;;;;;4993622;28;20069;-63
2023/03/14 03:07:23;;;;;;;13.82;1.50;;;9.90;99.90;;;;;;4978266;28;20073;-64
2023/03/14 03:09:49;;;;;;;16.65;2.03;;;9.90;99.90;;;;;;4978804;28;21063;-62
2023/03/14 03:12:15;;;;;;;13.77;1.35;;;9.80;99.90;;;;;;4996197;28;20827;-63
2023/03/14 03:14:40;;;;;;;13.13;1.45;;;9.80;99.90;;;;;;4977568;28;20101;-62
2023/03/14 03:17:06;;;;;;;12.68;1.50;;;9.80;1.00;;;;;;4978982;28;20064;-62
2023/03/14 03:19:33;;;;;;;10.75;1.35;;;9.80;1.00;;;;;;4976593;28;20037;-63
2023/03/14 03:21:59;;;;;;;12.23;1.30;;;9.80;1.00;;;;;;5010687;28;20149;-62
2023/03/14 03:24:26;;;;;;;10.13;1.00;;;9.80;1.00;;;;;;4993174;28;20100;-64
2023/03/14 03:26:52;;;;;;;12.50;1.42;;;9.80;1.00;;;;;;4977878;28;20072;-64
2023/03/14 03:29:18;;;;;;;12.40;1.40;;;9.80;1.00;;;;;;4979337;28;20072;-64
2023/03/14 03:31:45;;;;;;;14.30;1.50;;;9.80;1.00;;;;;;4976801;28;20607;-63
2023/03/14 03:34:12;;;;;;;8.50;0.80;;;9.80;1.00;;;;;;4978641;28;20129;-63
2023/03/14 03:36:38;;;;;;;9.57;1.13;;;9.80;1.00;;;;;;4976711;28;20057;-64
2023/03/14 03:39:04;;;;;;;11.48;1.15;;;9.80;1.00;;;;;;4991342;28;20121;-63
2023/03/14 03:41:30;;;;;;;8.63;0.90;;;9.70;1.00;;;;;;4978116;28;20479;-63
2023/03/14 03:43:56;;;;;;;9.43;0.98;;;9.70;1.00;;;;;;4990722;28;20334;-63
2023/03/14 03:46:23;;;;;;;11.25;1.83;;;9.60;1.00;;;;;;4976596;28;20455;-63
2023/03/14 03:48:53;;;;;;;8.98;1.10;;;9.50;1.00;;;;;;5007912;28;20586;-64
2023/03/14 03:51:19;;;;;;;13.35;1.60;;;9.50;1.00;;;;;;4977657;28;20042;-63
2023/03/14 03:53:44;;;;;;;14.68;2.05;;;9.30;13.10;;;;;;5011533;28;20378;-63
2023/03/14 03:56:10;;;;;;;9.10;1.30;;;9.30;74.40;;;;;;4998480;28;20057;-63
2023/03/14 03:58:38;;;;;;;10.13;1.85;;;9.10;99.90;;;;;;5003774;28;20498;-64
2023/03/14 04:01:06;;;;;;;14.30;2.53;;;9.20;99.90;;;;;;4983656;28;20503;-63
2023/03/14 04:03:32;;;;;;;13.60;2.22;;;9.00;99.90;;;;;;4999513;28;20045;-63
2023/03/14 04:06:02;;;;;;;10.65;1.67;;;8.70;99.90;;;;;;4998624;28;20042;-63
2023/03/14 04:08:28;;;;;;;11.00;2.05;;;8.70;99.90;;;;;;4997935;28;20038;-63
2023/03/14 04:10:57;;;;;;;10.40;1.88;;;8.90;99.90;;;;;;4982385;28;20038;-63
2023/03/14 04:13:24;;;;;;;9.02;1.73;;;8.90;99.90;;;;;;4983429;28;20406;-63
2023/03/14 04:15:50;;;;;;;9.35;1.67;;;8.90;99.90;;;;;;5013170;28;20045;-64
2023/03/14 04:18:16;;;;;;;10.63;1.70;;;8.80;99.90;;;;;;4984269;28;20548;-63
2023/03/14 04:20:42;;;;;;;11.90;1.90;;;8.80;99.90;;;;;;4986230;28;20053;-63
2023/03/14 04:23:07;;;;;;;13.18;2.28;;;8.50;99.90;;;;;;4998250;28;20243;-62
2023/03/14 04:25:33;;;;;;;10.10;2.33;;;8.60;99.90;;;;;;4981127;28;20257;-64
2023/03/14 04:27:59;;;;;;;13.13;1.95;;;8.70;99.90;;;;;;4982778;28;20112;-64
2023/03/14 04:30:24;;;;;;;18.33;3.30;;;8.90;99.90;;;;;;4984525;28;20555;-63
2023/03/14 04:32:50;;;;;;;15.75;2.75;;;8.80;99.90;;;;;;5003947;28;20124;-63
2023/03/14 04:35:16;;;;;;;13.18;2.85;;;8.90;99.90;;;;;;4983339;28;20481;-63
2023/03/14 04:37:43;;;;;;;15.80;2.95;;;8.60;99.90;;;;;;4982715;28;20142;-63
2023/03/14 04:40:10;;;;;;;17.85;4.03;;;8.60;99.90;;;;;;4997994;28;20049;-64
2023/03/14 04:42:36;;;;;;;17.48;3.40;;;8.70;99.90;;;;;;4984769;28;20550;-63
2023/03/14 04:45:02;;;;;;;19.20;4.75;;;8.80;99.90;;;;;;5015374;28;20052;-63
2023/03/14 04:47:28;;;;;;;20.90;4.53;;;8.60;99.90;;;;;;5000057;28;20037;-63
2023/03/14 04:49:53;;;;;;;17.27;4.35;;;8.60;99.90;;;;;;5018482;28;20424;-63
2023/03/14 04:52:19;;;;;;;18.70;4.50;;;8.70;99.90;;;;;;4985873;28;20046;-62
2023/03/14 04:54:45;;;;;;;15.93;4.55;;;8.80;1.00;;;;;;4985187;28;20046;-63
2023/03/14 04:57:10;;;;;;;20.05;5.10;;;8.40;1.00;;;;;;4987084;28;20187;-64
2023/03/14 04:59:36;;;;;;;20.58;5.30;;;8.30;1.00;;;;;;4987768;28;20598;-63
2023/03/14 05:02:02;;;;;;;21.10;6.55;;;8.80;1.00;;;;;;4986741;28;20462;-63
2023/03/14 05:04:29;;;;;;;21.83;7.88;;;8.40;2.10;;;;;;5002956;28;20045;-65
2023/03/14 05:06:54;;;;;;;22.42;7.22;;;8.70;1.00;;;;;;4998864;28;20045;-65
2023/03/14 05:09:20;;;;;;;22.60;5.65;;;8.40;25.50;;;;;;4980628;28;20196;-65
2023/03/14 05:11:46;;;;;;;22.05;7.07;;;8.60;76.00;;;;;;4962964;28;20041;-65
2023/03/14 05:14:12;;;;;;;21.73;8.25;;;8.80;95.50;;;;;;4978121;28;20258;-65
2023/03/14 05:16:37;;;;;;;22.98;7.65;;;8.30;99.90;;;;;;4994833;28;20107;-65
2023/03/14 05:19:03;;;;;;;22.00;8.18;;;8.40;99.90;;;;;;4996076;28;20275;-65
2023/03/14 05:21:29;;;;;;;19.52;8.00;;;8.10;99.90;;;;;;4977228;28;20346;-65
2023/03/14 05:23:55;;;;;;;20.48;7.63;;;8.50;99.90;;;;;;4994102;28;20297;-65
2023/03/14 05:26:20;;;;;;;23.00;8.05;;;8.60;99.90;;;;;;4979547;28;20042;-65
2023/03/14 05:28:46;;;;;;;19.65;8.00;;;8.30;99.90;;;;;;4980270;28;20617;-64
2023/03/14 05:31:12;;;;;;;18.48;8.10;;;8.70;99.90;;;;;;4973605;28;20038;-65
2023/03/14 05:33:37;;;;;;;20.25;7.95;;;8.30;99.90;;;;;;4978689;28;20068;-65
2023/03/14 05:36:03;;;;;;;19.55;6.22;;;8.20;99.90;;;;;;4977231;28;20302;-64
2023/03/14 05:38:29;;;;;;;16.92;6.88;;;8.60;99.90;;;;;;4979644;28;20068;-65
2023/03/14 05:40:55;;;;;;;21.05;8.05;;;8.00;99.90;;;;;;4983299;28;20049;-63
2023/03/14 05:43:20;;;;;;;24.75;8.27;;;8.20;99.90;;;;;;5003690;28;20596;-64
2023/03/14 05:45:46;;;;;;;23.98;8.05;;;8.40;99.90;;;;;;4986729;28;20034;-63
2023/03/14 05:48:12;;;;;;;24.15;8.30;;;8.20;99.90;;;;;;5002180;28;20047;-63
2023/03/14 05:50:38;;;;;;;18.85;7.53;;;8.80;99.90;;;;;;4986723;28;20184;-63
2023/03/14 05:53:05;;;;;;;19.65;7.15;;;8.30;99.90;;;;;;4985010;28;20500;-63
2023/03/14 05:55:30;;;;;;;15.30;7.35;;;8.20;99.90;;;;;;5018785;28;20079;-63
2023/03/14 05:57:56;;;;;;;15.52;7.05;;;8.50;99.90;;;;;;4987075;28;20711;-63
2023/03/14 06:00:22;;;;;;;18.70;8.27;;;8.10;99.90;;;;;;4982729;28;20057;-65
2023/03/14 06:02:48;;;;;;;17.63;7.55;;;7.90;99.90;;;;;;4995208;28;20081;-64
2023/03/14 06:05:14;;;;;;;18.75;7.65;;;8.50;99.90;;;;;;4957233;28;20042;-65
2023/03/14 06:07:39;;;;;;;14.63;7.07;;;8.20;99.90;;;;;;4980469;28;20487;-62
2023/03/14 06:10:06;;;;;;;20.77;7.85;;;8.20;99.90;;;;;;5002184;28;20069;-63
2023/03/14 06:12:31;;;;;;;18.45;7.45;;;8.10;99.90;;;;;;5012844;28;20124;-63
2023/03/14 06:14:57;;;;;;;17.13;7.75;;;8.10;99.90;;;;;;4978532;28;20034;-63
2023/03/14 06:17:23;;;;;;;16.38;7.00;;;8.20;99.90;;;;;;4970353;28;20030;-64
2023/03/14 06:19:48;;;;;;;13.68;6.05;;;8.70;99.90;;;;;;5009991;28;20053;-63
2023/03/14 06:22:14;;;;;;;11.75;5.85;;;8.20;99.90;;;;;;4987527;28;20049;-62
2023/03/14 06:24:40;;;;;;;10.70;5.25;;;8.30;99.90;;;;;;4989509;28;20041;-63
2023/03/14 06:27:06;;;;;;;16.05;6.05;;;8.80;99.90;;;;;;5004850;28;20121;-62
2023/03/14 06:29:31;;;;;;;11.75;4.32;;;8.60;99.90;;;;;;4989001;28;20547;-63
2023/03/14 06:31:57;;;;;;;10.73;3.55;;;8.50;99.90;;;;;;4972915;28;20045;-64
2023/03/14 06:34:23;;;;;;;5.55;1.95;;;8.70;99.90;;;;;;4994568;28;20242;-65
2023/03/14 06:36:48;;;;;;;4.95;2.15;;;8.50;99.90;;;;;;5007489;28;20058;-65
2023/03/14 06:39:14;;;;;;;6.18;2.65;;;8.10;99.90;;;;;;4973538;28;20045;-66
2023/03/14 06:41:40;;;;;;;3.50;0.50;;;8.70;99.90;;;;;;4977019;28;20038;-65
2023/03/14 06:44:05;;;;;;;3.90;0.20;;;8.20;99.90;;;;;;4961623;28;20579;-66
2023/03/14 06:46:31;;;;;;;8.10;0.40;;;8.00;99.90;;;;;;4994553;28;20065;-66
2023/03/14 06:48:57;;;;;;;9.30;0.80;;;7.30;99.90;;;;;;4997587;28;20129;-65
2023/03/14 06:51:23;;;;;;;17.27;1.30;;;7.00;99.90;;;;;;4962545;28;20741;-66
2023/03/14 06:53:48;;;;;;;18.17;1.00;;;7.40;99.90;;;;;;5008174;28;20045;-65
2023/03/14 06:56:14;;;;;;;19.33;1.02;;;7.40;99.90;;;;;;4959869;28;20400;-65
2023/03/14 06:58:40;;;;;;;13.48;0.85;;;6.50;99.90;;;;;;4977255;28;20072;-66
2023/03/14 07:01:14;;;;;;;23.98;1.50;;;6.60;99.90;;;;;;4956746;28;20050;-66
2023/03/14 07:03:40;;;;;;;21.60;1.15;;;6.60;99.90;;;;;;5008679;28;20053;-66
2023/03/14 07:06:06;;;;;;;19.52;1.45;;;6.30;99.90;;;;;;4977067;28;20053;-67
2023/03/14 07:08:31;;;;;;;23.35;1.73;;;5.50;99.90;;;;;;4979307;28;20522;-66
2023/03/14 07:10:57;;;;;;;13.80;0.80;;;5.60;92.60;;;;;;4972689;28;20197;-66
2023/03/14 07:13:23;;;;;;;29.98;1.98;;;5.80;21.10;;;;;;4976251;28;20534;-67
2023/03/14 07:15:48;;;;;;;26.15;1.10;;;5.10;63.70;;;;;;4962492;28;20077;-67
2023/03/14 07:18:14;;;;;;;23.77;1.17;;;4.60;11.40;;;;;;4977615;28;20049;-68
2023/03/14 07:20:40;;;;;;;20.73;1.30;;;3.90;39.20;;;;;;4996600;28;20046;-67
2023/03/14 07:23:06;;;;;;;17.67;0.90;;;4.10;70.10;;;;;;4964232;28;20445;-68
2023/03/14 07:25:31;;;;;;;25.05;0.88;;;4.00;99.90;;;;;;4989434;28;20563;-68
2023/03/14 07:27:57;;;;;;;17.17;1.05;;;3.50;99.90;;;;;;4978164;28;20340;-66
2023/03/14 07:30:23;;;;;;;19.77;0.80;;;3.50;99.90;;;;;;4979844;28;20088;-68
2023/03/14 07:32:48;;;;;;;19.40;0.88;;;4.30;99.90;;;;;;4987785;28;20136;-68
2023/03/14 07:35:14;;;;;;;14.38;0.40;;;3.80;99.90;;;;;;4977195;28;20488;-68
2023/03/14 07:37:40;;;;;;;16.98;0.63;;;4.20;99.90;;;;;;4975231;28;20244;-68
2023/03/14 07:40:07;;;;;;;17.50;0.40;;;3.60;99.90;;;;;;4975006;28;20045;-69
2023/03/14 07:42:32;;;;;;;16.13;0.70;;;3.80;99.90;;;;;;4976076;28;20070;-69
2023/03/14 07:44:58;;;;;;;15.68;0.40;;;3.80;99.90;;;;;;4991594;28;20126;-67
2023/03/14 07:47:24;;;;;;;13.07;0.30;;;3.80;99.90;;;;;;4972425;28;20080;-68
2023/03/14 07:49:49;;;;;;;16.17;0.50;;;4.10;99.90;;;;;;5006870;28;20108;-68
2023/03/14 07:52:15;;;;;;;11.57;0.25;;;3.80;99.90;;;;;;4957761;28;20034;-68
2023/03/14 07:54:41;;;;;;;10.40;0.50;;;3.10;99.90;;;;;;4974507;28;20084;-68
2023/03/14 07:57:06;;;;;;;17.40;0.75;;;3.50;99.90;;;;;;5006687;28;20385;-68
2023/03/14 07:59:32;;;;;;;9.88;0.40;;;4.00;99.90;;;;;;4974969;28;20030;-68
2023/03/14 08:01:58;;;;;;;9.13;0.40;;;3.20;99.90;;;;;;4988061;28;20473;-68
2023/03/14 08:04:24;;;;;;;10.27;0.30;;;3.90;99.90;;;;;;4974631;28;20092;-68
2023/03/14 08:06:50;;;;;;;11.57;1.05;;;4.00;99.90;;;;;;4996457;28;20140;-68
2023/03/14 08:09:16;;;;;;;8.77;0.20;;;3.20;99.90;;;;;;4973005;28;20319;-68
2023/03/14 08:11:42;;;;;;;4.55;0.20;;;3.70;99.90;;;;;;4989725;28;20086;-68
2023/03/14 08:14:07;;;;;;;4.10;0.17;;;3.70;99.90;;;;;;5006805;28;20541;-69
2023/03/14 08:16:33;;;;;;;7.15;0.20;;;4.40;99.90;;;;;;4990537;28;20045;-66
2023/03/14 08:18:59;;;;;;;6.00;0.20;;;4.30;99.90;;;;;;4973529;28;20639;-66
2023/03/14 08:21:24;;;;;;;9.50;0.20;;;3.80;99.90;;;;;;4974630;28;20041;-67
2023/03/14 08:23:50;;;;;;;6.85;0.20;;;3.80;99.90;;;;;;4989418;28;20660;-66
2023/03/14 08:26:16;;;;;;;6.32;0.25;;;4.40;99.90;;;;;;4976116;28;20315;-68
2023/03/14 08:28:41;;;;;;;6.20;0.35;;;4.30;99.90;;;;;;4973990;28;20375;-67
2023/03/14 08:31:07;;;;;;;9.70;0.50;;;4.80;99.90;;;;;;4990877;28;20930;-66
2023/03/14 08:33:33;;;;;;;7.57;0.40;;;4.90;99.90;;;;;;4992926;28;20041;-66
2023/03/14 08:36:00;;;;;;;6.72;0.30;;;4.20;99.90;;;;;;4994857;28;20204;-65
2023/03/14 08:38:26;;;;;;;10.98;0.98;;;4.90;87.50;;;;;;5010061;28;20049;-64
2023/03/14 08:40:59;;;;;;;10.73;0.60;;;4.80;99.90;;;;;;4979921;28;20452;-66
2023/03/14 08:43:26;;;;;;;9.63;0.47;;;5.10;99.90;;;;;;4996541;28;20050;-66
2023/03/14 08:45:52;;;;;;;13.10;1.52;;;4.70;99.90;;;;;;4963491;28;20490;-66
2023/03/14 08:48:19;;;;;;;9.25;0.75;;;4.80;1.00;;;;;;4977123;28;20042;-67
2023/03/14 08:50:45;;;;;;;11.25;0.65;;;4.80;1.00;;;;;;4976816;28;20558;-68
2023/03/14 08:53:11;;;;;;;8.75;0.50;;;4.50;1.00;;;;;;4977160;28;20050;-68
2023/03/14 08:55:37;;;;;;;11.27;0.45;;;4.80;1.00;;;;;;4993996;28;20034;-69
2023/03/14 08:58:03;;;;;;;14.57;0.77;;;4.70;1.00;;;;;;4977383;28;20346;-68
2023/03/14 09:00:28;;;;;;;13.35;0.88;;;5.40;1.00;;;;;;4976238;28;20520;-67
2023/03/14 09:02:54;;;;;;;15.30;1.02;;;4.70;99.90;;;;;;4958835;28;20048;-67
2023/03/14 09:05:20;;;;;;;15.43;0.80;;;5.30;99.90;;;;;;4976691;28;20046;-67
2023/03/14 09:07:45;;;;;;;19.65;1.30;;;5.00;99.90;;;;;;4977734;28;20485;-66
2023/03/14 09:10:11;;;;;;;15.15;1.27;;;5.60;99.90;;;;;;4976827;28;20692;-66
2023/03/14 09:12:37;;;;;;;17.95;1.30;;;5.10;99.90;;;;;;4959298;28;20479;-68
2023/03/14 09:15:03;;;;;;;20.75;1.80;;;5.20;99.90;;;;;;4998128;28;20390;-68
2023/03/14 09:17:29;;;;;;;18.88;1.77;;;5.50;99.90;;;;;;4997612;28;20308;-67
2023/03/14 09:19:55;;;;;;;23.00;2.05;;;5.40;99.90;;;;;;4978450;28;20037;-67
2023/03/14 09:22:21;;;;;;;21.38;2.15;;;5.60;99.90;;;;;;4992996;28;20038;-68
2023/03/14 09:24:47;;;;;;;25.23;2.13;;;6.10;99.90;;;;;;4962721;28;20175;-66
2023/03/14 09:27:12;;;;;;;20.70;1.95;;;6.40;99.90;;;;;;4978621;28;20352;-65
2023/03/14 09:29:38;;;;;;;18.02;2.20;;;6.60;99.90;;;;;;4977486;28;20464;-66
2023/03/14 09:32:04;;;;;;;21.95;1.98;;;6.60;99.90;;;;;;5011910;28;20048;-66
2023/03/14 09:34:30;;;;;;;27.27;2.15;;;6.70;99.90;;;;;;4979390;28;20046;-66
2023/03/14 09:36:56;;;;;;;19.08;2.50;;;7.00;99.90;;;;;;5010736;28;20440;-66
2023/03/14 09:39:22;;;;;;;21.20;2.50;;;7.00;1.00;;;;;;4977537;28;20295;-65
2023/03/14 09:41:51;;;;;;;19.42;2.38;;;6.70;1.00;;;;;;5011143;28;20484;-65
2023/03/14 09:44:31;;;;;;;17.27;1.90;;;6.40;1.00;;;;;;5009859;28;20061;-65
2023/03/14 09:47:05;;;;;;;22.30;2.22;;;6.00;1.00;;;;;;4977199;28;20407;-65
2023/03/14 09:49:38;;;;;;;23.10;2.25;;;5.90;99.90;;;;;;4994011;28;20038;-67
2023/03/14 09:52:31;;;;;;;18.40;2.65;;;5.90;1.00;;;;;;4990600;28;20368;-68
2023/03/14 09:55:03;;;;;;;20.35;3.03;;;5.90;1.00;;;;;;4976073;28;20128;-67
2023/03/14 09:57:29;;;;;;;23.23;2.03;;;5.90;99.90;;;;;;5009309;28;20394;-67
2023/03/14 10:00:00;;;;;;;23.15;2.78;;;6.10;99.90;;;;;;5009183;28;20246;-67
2023/03/14 10:02:35;;;;;;;19.20;1.80;;;6.10;99.90;;;;;;5008001;28;20050;-66
2023/03/14 10:05:01;;;;;;;21.45;2.47;;;6.00;99.90;;;;;;5010657;28;20042;-67
2023/03/14 10:07:31;;;;;;;21.75;2.60;;;6.10;99.90;;;;;;4993006;28;20116;-66
2023/03/14 10:09:58;;;;;;;24.55;2.35;;;6.20;99.90;;;;;;5008571;28;20037;-65
2023/03/14 10:12:33;;;;;;;17.83;1.88;;;6.20;99.90;;;;;;4993155;28;20050;-66
2023/03/14 10:15:04;;;;;;;21.65;2.25;;;6.20;99.90;;;;;;4978966;28;20507;-68
2023/03/14 10:17:38;;;;;;;26.42;2.70;;;6.10;99.90;;;;;;4974850;28;20356;-67
2023/03/14 10:20:03;;;;;;;18.10;2.08;;;6.30;99.90;;;;;;4975279;28;20070;-66
2023/03/14 10:22:33;;;;;;;28.95;2.63;;;6.50;99.90;;;;;;4991422;28;20129;-67
2023/03/14 10:25:07;;;;;;;20.08;2.33;;;6.50;99.90;;;;;;4960919;28;20442;-68
2023/03/14 10:27:35;;;;;;;22.52;2.40;;;6.50;99.90;;;;;;4991473;28;20038;-69
2023/03/14 10:30:07;;;;;;;19.33;1.85;;;6.80;99.90;;;;;;5007683;28;20686;-67
2023/03/14 10:32:41;;;;;;;14.95;1.98;;;7.00;99.90;;;;;;5008382;28;20167;-69
2023/03/14 10:35:16;;;;;;;16.45;1.65;;;7.50;44.50;;;;;;4975989;28;20076;-67
2023/03/14 10:37:58;;;;;;;17.45;1.95;;;7.70;1.00;;;;;;4989912;28;20437;-67
2023/03/14 10:40:31;;;;;;;18.90;1.70;;;7.50;1.00;;;;;;4991844;28;20559;-68
2023/03/14 10:42:58;;;;;;;;;;;7.50;1.00;;;;;;5007685;28;20539;-67
2023/03/14 10:45:40;;;;;;;13.93;1.10;;;7.60;1.00;;;;;;4990215;28;19921;-67
2023/03/14 10:48:20;;;;;;;18.65;1.42;;;7.80;1.00;;;;;;5008705;28;20295;-66
2023/03/14 10:50:50;;;;;;;14.70;1.55;;;7.50;99.90;;;;;;4989607;28;20073;-66
2023/03/14 10:53:17;;;;;;;10.32;1.10;;;7.60;99.90;;;;;;4990980;28;20042;-65
2023/03/14 10:55:47;;;;;;;14.07;1.73;;;7.60;99.90;;;;;;4991451;28;20052;-65
2023/03/14 10:58:26;;;;;;;13.77;1.63;;;7.70;99.90;;;;;;4992200;28;20042;-65
2023/03/14 11:01:26;;;;;;;21.35;1.58;;;8.00;99.90;;;;;;5007683;28;20288;-66
2023/03/14 11:04:00;;;;;;;17.63;2.28;;;8.10;99.90;;;;;;4990517;28;20092;-65
2023/03/14 11:06:53;;;;;;;8.45;0.93;;;7.40;99.90;;;;;;4988169;28;20260;-65
2023/03/14 11:09:37;;;;;;;10.38;1.08;;;7.00;99.90;;;;;;4976475;28;20046;-65
2023/03/14 11:12:26;;;;;;;11.27;0.65;;;7.00;99.90;;;;;;5007158;28;20042;-65
2023/03/14 11:15:09;;;;;;;8.57;1.00;;;6.90;99.90;;;;;;4999875;28;20440;-66
2023/03/14 11:17:48;;;;;;;8.45;0.88;;;7.30;99.90;;;;;;4971659;28;20745;-67
2023/03/14 11:20:44;;;;;;;9.35;0.98;;;7.20;99.90;;;;;;4971556;28;20046;-64
2023/03/14 11:23:20;;;;;;;13.95;1.00;;;7.90;99.90;;;;;;5006632;28;20464;-64
2023/03/14 11:26:06;;;;;;;7.75;0.63;;;8.00;99.90;;;;;;4991692;28;20034;-63
2023/03/14 11:28:42;;;;;;;11.43;0.90;;;7.90;99.90;;;;;;5008327;28;20125;-65
2023/03/14 11:31:29;;;;;;;8.50;0.95;;;7.40;99.90;;;;;;5007960;28;20075;-65
2023/03/14 11:34:15;;;;;;;12.55;1.10;;;7.40;99.90;;;;;;5006980;28;20050;-65
2023/03/14 11:37:02;;;;;;;13.38;1.15;;;7.10;99.90;;;;;;5006160;28;20314;-65
2023/03/14 11:39:38;;;;;;;9.02;0.60;;;6.60;99.90;;;;;;4989386;28;20056;-65
2023/03/14 11:42:04;;;;;;;7.15;0.75;;;6.40;99.90;;;;;;4993867;28;20476;-65
2023/03/14 11:44:49;;;;;;;6.07;0.40;;;6.20;99.90;;;;;;4973903;28;20445;-64
2023/03/14 11:47:39;;;;;;;7.60;0.65;;;6.10;99.90;;;;;;5005138;28;20310;-65
2023/03/14 11:50:27;;;;;;;7.30;0.40;;;6.60;99.90;;;;;;4974674;28;20038;-65
2023/03/14 11:53:13;;;;;;;7.20;0.57;;;7.60;99.90;;;;;;4992401;28;20552;-66
2023/03/14 11:55:43;;;;;;;6.78;0.50;;;8.10;99.90;;;;;;4991716;28;20533;-66
2023/03/14 11:58:18;;;;;;;5.07;0.40;;;8.50;99.90;;;;;;4990538;28;20185;-65
2023/03/14 12:00:46;;;;;;;8.75;0.73;;;8.20;99.90;;;;;;4974558;28;20206;-64
2023/03/14 12:03:43;;;;;;;13.15;0.60;;;7.60;99.90;;;;;;4991010;28;20375;-66
2023/03/14 12:06:32;;;;;;;8.38;0.40;;;7.90;99.90;;;;;;4972764;28;20267;-65
2023/03/14 12:09:06;;;;;;;7.30;0.60;;;8.10;99.90;;;;;;4974798;28;20054;-65
2023/03/14 12:11:59;;;;;;;7.15;0.60;;;8.10;99.90;;;;;;5005454;28;20038;-65
2023/03/14 12:14:26;;;;;;;7.60;0.60;;;7.60;99.90;;;;;;4974149;28;20108;-65
2023/03/14 12:17:27;;;;;;;7.88;0.57;;;7.20;99.90;;;;;;4976711;28;20070;-64
2023/03/14 12:20:14;;;;;;;12.48;0.90;;;7.00;99.90;;;;;;4973876;28;20053;-65
2023/03/14 12:23:05;;;;;;;14.20;1.25;;;7.20;99.90;;;;;;4991075;28;20314;-65
2023/03/14 12:25:33;;;;;;;13.07;0.98;;;6.80;99.90;;;;;;4956735;28;20629;-64
2023/03/14 12:28:18;;;;;;;10.73;0.80;;;6.80;99.90;;;;;;4976805;28;20034;-66
2023/03/14 12:30:44;;;;;;;8.95;0.82;;;7.10;99.90;;;;;;4978481;28;20042;-65
2023/03/14 12:33:12;;;;;;;12.63;0.95;;;7.50;99.90;;;;;;4976147;28;20412;-66
2023/03/14 12:35:49;;;;;;;13.73;1.00;;;7.50;99.90;;;;;;4993383;28;20134;-65
2023/03/14 12:38:36;;;;;;;13.63;1.10;;;7.20;99.90;;;;;;4993516;28;20062;-64
2023/03/14 12:41:23;;;;;;;15.15;1.48;;;7.10;99.90;;;;;;4993511;28;20061;-64
2023/03/14 12:43:49;;;;;;;8.10;0.88;;;6.80;99.90;;;;;;4975965;28;20042;-64
2023/03/14 12:46:17;;;;;;;7.25;0.60;;;6.70;99.90;;;;;;5009039;28;20529;-64
2023/03/14 12:49:02;;;;;;;10.77;0.95;;;6.80;99.90;;;;;;4996692;28;20305;-65
2023/03/14 12:51:43;;;;;;;8.02;0.65;;;7.20;99.90;;;;;;4993384;28;20081;-65
2023/03/14 12:54:39;;;;;;;6.95;0.65;;;8.00;99.90;;;;;;4976988;28;20552;-64
2023/03/14 12:57:08;;;;;;;10.52;1.10;;;8.70;99.90;;;;;;5010397;28;20058;-66
2023/03/14 12:59:55;;;;;;;8.25;0.52;;;8.50;99.90;;;;;;4975103;28;20072;-65